This is the latest recevied weather packets stored in our database for station/object KJ4EBE. If no packets are shown the sender has not sent any weather packets the latest 10 day(s).
| Time | Temp. | Humidity | Pressure | Rain* | Wind** | Luminosity | Snow |
|---|---|---|---|---|---|---|---|
| 1777908282 | 22.22° C | 72% | 1013.5 hPa | 0 mm | - | 596 W/m² | - |
| 1777907978 | 22.22° C | 71% | 1013.5 hPa | 0 mm | - | 632 W/m² | - |
| 1777907674 | 22.78° C | 70% | 1013.6 hPa | 0 mm | - | 621 W/m² | - |
| 1777907369 | 21.67° C | 73% | 1013.6 hPa | 0 mm | - | 578 W/m² | - |
| 1777907066 | 21.67° C | 72% | 1013.7 hPa | 0 mm | - | 187 W/m² | - |
| 1777906764 | 21.67° C | 73% | 1013.7 hPa | 0 mm | - | 528 W/m² | - |
| 1777906460 | 21.67° C | 74% | 1013.6 hPa | 0 mm | - | 601 W/m² | - |
| 1777906157 | 21.11° C | 75% | 1013.7 hPa | 0 mm | - | 311 W/m² | - |
| 1777905854 | 21.67° C | 73% | 1013.6 hPa | 0 mm | - | 512 W/m² | - |
| 1777905551 | 21.11° C | 76% | 1013.8 hPa | 0 mm | - | 472 W/m² | - |
| 1777905248 | 20.56° C | 77% | 1013.6 hPa | 0 mm | - | 457 W/m² | - |
| 1777904945 | 20° C | 77% | 1013.7 hPa | 0 mm | - | 444 W/m² | - |
| 1777904642 | 20.56° C | 77% | 1013.7 hPa | 0 mm | - | 455 W/m² | - |
| 1777904339 | 20.56° C | 76% | 1013.8 hPa | 0 mm | - | 379 W/m² | - |
| 1777904036 | 20° C | 77% | 1013.8 hPa | 0 mm | - | 389 W/m² | - |
| 1777903732 | 19.44° C | 79% | 1013.8 hPa | 0 mm | - | 378 W/m² | - |
| 1777903429 | 19.44° C | 80% | 1013.7 hPa | 0 mm | - | 368 W/m² | - |
| 1777903125 | 18.33° C | 81% | 1013.6 hPa | 0 mm | - | 301 W/m² | - |
| 1777902822 | 18.33° C | 82% | 1013.6 hPa | 0 mm | - | 267 W/m² | - |
| 1777902519 | 18.33° C | 82% | 1013.7 hPa | 0 mm | - | 321 W/m² | - |
| 1777902216 | 18.33° C | 83% | 1013.7 hPa | 0 mm | - | 299 W/m² | - |
| 1777901914 | 17.22° C | 85% | 1013.7 hPa | 0 mm | - | 251 W/m² | - |
| 1777901612 | 16.67° C | 86% | 1013.8 hPa | 0 mm | - | 231 W/m² | - |
| 1777901309 | 16.67° C | 87% | 1013.6 hPa | 0 mm | - | 139 W/m² | - |
| 1777901006 | 16.11° C | 88% | 1013.6 hPa | 0 mm | - | 63 W/m² | - |
* Rain latest hour (hover to see other rain measurements)
** Current wind speed in m/s (hover to see current wind gust speed)